Miami, Florida
Traffic Map
Current Weather Conditions
Miami, Florida
Broken Clouds
Broken Clouds
77°
Feels Like: 79°
Wind Chill: 77° Ceiling: 25000
Heat Index: 79° Visibility: 10mi
Dew Point: 68° Wind: 13mph
Humidity: 74% Direction: 90° (E)
Pressure: 29.98in Gusts: 0mph
Raw Report DataKMIA 010753Z 09011KT 10SM FEW024 FEW038 SCT049 BKN250 25/20 A2998 RMK AO2 SLP153 98744 T02500200
Traffic Incident Summary
Active as of:
Severity:
Category:
InformationThere was an issue retrieving the traffic information for this location. Please try a different location or try again shortly.
Advertisements
Track Severe Weather on mobile